KDAL/DAL METAR and TAF weather

Enter ICAO airport designator
Station Type Date Time Source
KDAL METAR 2019/06/18 12:53 UTC NOAA

KDAL 181253Z 25003KT 10SM FEW025 FEW065 BKN250 26/20 A2995 RMK AO2 SLP134 T02560200


Station Type Date Time Source
KDAL Decoded METAR 2019/06/18 12:53 UTC NOAA

DALLAS LOVE FIELD, TX, United States (KDAL) 32-51N 096-51W 158M
Jun 18, 2019 - 08:53 AM EDT / 2019.06.18 1253 UTC
Wind: from the WSW (250 degrees) at 3 MPH (3 KT):0
Visibility: 10 mile(s):0
Sky conditions: mostly cloudy
Temperature: 78.1 F (25.6 C)
Dew Point: 68.0 F (20.0 C)
Relative Humidity: 71%
Pressure (altimeter): 29.95 in. Hg (1014 hPa)
ob: KDAL 181253Z 25003KT 10SM FEW025 FEW065 BKN250 26/20 A2995 RMK AO2 SLP134 T02560200
cycle: 13

Station Type Date Time Source
KDAL TAF 2019/06/18 12:42 UTC NOAA

TAF KDAL 181139Z 1812/1912 17009KT P6SM BKN250
FM190600 19010KT P6SM VCSH BKN040 BKN250
FM190900 17012KT P6SM BKN040 BKN250

Example: see airport list